sensor_id;sensor_type;location;lat;lon;timestamp;temperature;humidity
2465;DHT22;1244;54.326;10.074;2023-09-08T00:01:37;17.40;99.90
2465;DHT22;1244;54.326;10.074;2023-09-08T00:04:03;17.50;99.90
2465;DHT22;1244;54.326;10.074;2023-09-08T00:06:29;17.50;99.90
2465;DHT22;1244;54.326;10.074;2023-09-08T00:08:55;17.50;99.90
2465;DHT22;1244;54.326;10.074;2023-09-08T00:11:20;17.50;99.90
2465;DHT22;1244;54.326;10.074;2023-09-08T00:13:46;17.60;99.90
2465;DHT22;1244;54.326;10.074;2023-09-08T00:16:11;17.50;99.90
2465;DHT22;1244;54.326;10.074;2023-09-08T00:18:37;17.50;99.90
2465;DHT22;1244;54.326;10.074;2023-09-08T00:21:02;17.50;99.90
2465;DHT22;1244;54.326;10.074;2023-09-08T00:23:28;17.50;99.90
2465;DHT22;1244;54.326;10.074;2023-09-08T00:25:53;17.40;99.90
2465;DHT22;1244;54.326;10.074;2023-09-08T00:28:19;17.30;99.90
2465;DHT22;1244;54.326;10.074;2023-09-08T00:30:44;17.20;99.90
2465;DHT22;1244;54.326;10.074;2023-09-08T00:33:10;17.20;99.90
2465;DHT22;1244;54.326;10.074;2023-09-08T00:35:38;17.20;99.90
2465;DHT22;1244;54.326;10.074;2023-09-08T00:38:03;17.10;99.90
2465;DHT22;1244;54.326;10.074;2023-09-08T00:40:29;17.00;99.90
2465;DHT22;1244;54.326;10.074;2023-09-08T00:42:54;17.00;99.90
2465;DHT22;1244;54.326;10.074;2023-09-08T00:45:20;17.00;99.90
2465;DHT22;1244;54.326;10.074;2023-09-08T00:47:46;16.90;99.90
2465;DHT22;1244;54.326;10.074;2023-09-08T00:50:11;16.90;99.90
2465;DHT22;1244;54.326;10.074;2023-09-08T00:52:37;17.00;99.90
2465;DHT22;1244;54.326;10.074;2023-09-08T00:55:03;16.90;99.90
2465;DHT22;1244;54.326;10.074;2023-09-08T00:57:29;16.80;99.90
2465;DHT22;1244;54.326;10.074;2023-09-08T00:59:54;16.80;99.90
2465;DHT22;1244;54.326;10.074;2023-09-08T01:02:22;16.80;99.90
2465;DHT22;1244;54.326;10.074;2023-09-08T01:04:47;16.80;99.90
2465;DHT22;1244;54.326;10.074;2023-09-08T01:07:14;16.80;99.90
2465;DHT22;1244;54.326;10.074;2023-09-08T01:09:40;16.80;99.90
2465;DHT22;1244;54.326;10.074;2023-09-08T01:12:06;16.90;99.90
2465;DHT22;1244;54.326;10.074;2023-09-08T01:14:32;16.80;99.90
2465;DHT22;1244;54.326;10.074;2023-09-08T01:16:58;16.80;99.90
2465;DHT22;1244;54.326;10.074;2023-09-08T01:19:23;16.90;99.90
2465;DHT22;1244;54.326;10.074;2023-09-08T01:22:06;16.80;99.90
2465;DHT22;1244;54.326;10.074;2023-09-08T01:25:04;16.70;99.90
2465;DHT22;1244;54.326;10.074;2023-09-08T01:27:33;16.80;99.90
2465;DHT22;1244;54.326;10.074;2023-09-08T01:30:01;16.80;99.90
2465;DHT22;1244;54.326;10.074;2023-09-08T01:32:28;16.90;99.90
2465;DHT22;1244;54.326;10.074;2023-09-08T01:34:56;17.00;99.90
2465;DHT22;1244;54.326;10.074;2023-09-08T01:37:25;17.10;99.90
2465;DHT22;1244;54.326;10.074;2023-09-08T01:39:50;17.10;99.90
2465;DHT22;1244;54.326;10.074;2023-09-08T01:42:16;16.90;99.90
2465;DHT22;1244;54.326;10.074;2023-09-08T01:44:41;16.80;99.90
2465;DHT22;1244;54.326;10.074;2023-09-08T01:47:07;16.90;99.90
2465;DHT22;1244;54.326;10.074;2023-09-08T01:49:32;16.80;99.90
2465;DHT22;1244;54.326;10.074;2023-09-08T01:51:58;16.80;99.90
2465;DHT22;1244;54.326;10.074;2023-09-08T01:54:23;16.80;99.90
2465;DHT22;1244;54.326;10.074;2023-09-08T01:56:49;16.70;99.90
2465;DHT22;1244;54.326;10.074;2023-09-08T01:59:16;16.80;99.90
2465;DHT22;1244;54.326;10.074;2023-09-08T02:01:42;16.70;99.90
2465;DHT22;1244;54.326;10.074;2023-09-08T02:04:07;16.60;99.90
2465;DHT22;1244;54.326;10.074;2023-09-08T02:06:33;16.60;99.90
2465;DHT22;1244;54.326;10.074;2023-09-08T02:08:58;16.40;99.90
2465;DHT22;1244;54.326;10.074;2023-09-08T02:11:24;16.40;99.90
2465;DHT22;1244;54.326;10.074;2023-09-08T02:13:49;16.30;99.90
2465;DHT22;1244;54.326;10.074;2023-09-08T02:16:15;16.40;99.90
2465;DHT22;1244;54.326;10.074;2023-09-08T02:18:42;16.30;99.90
2465;DHT22;1244;54.326;10.074;2023-09-08T02:21:08;16.40;99.90
2465;DHT22;1244;54.326;10.074;2023-09-08T02:23:33;16.30;99.90
2465;DHT22;1244;54.326;10.074;2023-09-08T02:25:59;16.30;99.90
2465;DHT22;1244;54.326;10.074;2023-09-08T02:28:24;16.30;99.90
2465;DHT22;1244;54.326;10.074;2023-09-08T02:30:50;16.20;99.90
2465;DHT22;1244;54.326;10.074;2023-09-08T02:33:15;16.20;99.90
2465;DHT22;1244;54.326;10.074;2023-09-08T02:35:41;16.20;99.90
2465;DHT22;1244;54.326;10.074;2023-09-08T02:38:06;16.20;99.90
2465;DHT22;1244;54.326;10.074;2023-09-08T02:40:32;16.20;99.90
2465;DHT22;1244;54.326;10.074;2023-09-08T02:43:00;16.20;99.90
2465;DHT22;1244;54.326;10.074;2023-09-08T02:45:26;16.20;99.90
2465;DHT22;1244;54.326;10.074;2023-09-08T02:47:51;16.20;99.90
2465;DHT22;1244;54.326;10.074;2023-09-08T02:50:17;16.20;99.90
2465;DHT22;1244;54.326;10.074;2023-09-08T02:52:43;16.10;99.90
2465;DHT22;1244;54.326;10.074;2023-09-08T02:55:09;16.10;99.90
2465;DHT22;1244;54.326;10.074;2023-09-08T02:57:34;16.00;99.90
2465;DHT22;1244;54.326;10.074;2023-09-08T03:00:00;16.10;99.90
2465;DHT22;1244;54.326;10.074;2023-09-08T03:02:26;16.10;99.90
2465;DHT22;1244;54.326;10.074;2023-09-08T03:04:51;16.00;99.90
2465;DHT22;1244;54.326;10.074;2023-09-08T03:07:17;16.00;99.90
2465;DHT22;1244;54.326;10.074;2023-09-08T03:09:43;16.00;99.90
2465;DHT22;1244;54.326;10.074;2023-09-08T03:12:08;16.00;99.90
2465;DHT22;1244;54.326;10.074;2023-09-08T03:14:34;16.00;99.90
2465;DHT22;1244;54.326;10.074;2023-09-08T03:16:59;15.90;99.90
2465;DHT22;1244;54.326;10.074;2023-09-08T03:19:25;15.90;99.90
2465;DHT22;1244;54.326;10.074;2023-09-08T03:21:50;15.90;99.90
2465;DHT22;1244;54.326;10.074;2023-09-08T03:24:16;16.00;99.90
2465;DHT22;1244;54.326;10.074;2023-09-08T03:26:41;16.00;99.90
2465;DHT22;1244;54.326;10.074;2023-09-08T03:29:07;15.90;99.90
2465;DHT22;1244;54.326;10.074;2023-09-08T03:31:32;15.90;99.90
2465;DHT22;1244;54.326;10.074;2023-09-08T03:33:58;15.90;99.90
2465;DHT22;1244;54.326;10.074;2023-09-08T03:36:23;15.80;99.90
2465;DHT22;1244;54.326;10.074;2023-09-08T03:38:50;15.90;99.90
2465;DHT22;1244;54.326;10.074;2023-09-08T03:41:15;15.90;99.90
2465;DHT22;1244;54.326;10.074;2023-09-08T03:43:41;16.10;99.90
2465;DHT22;1244;54.326;10.074;2023-09-08T03:46:06;16.00;99.90
2465;DHT22;1244;54.326;10.074;2023-09-08T03:48:32;15.90;99.90
2465;DHT22;1244;54.326;10.074;2023-09-08T03:50:58;15.90;99.90
2465;DHT22;1244;54.326;10.074;2023-09-08T03:53:24;15.90;99.90
2465;DHT22;1244;54.326;10.074;2023-09-08T03:55:49;16.00;99.90
2465;DHT22;1244;54.326;10.074;2023-09-08T03:58:15;16.00;99.90
2465;DHT22;1244;54.326;10.074;2023-09-08T04:00:41;16.30;99.90
2465;DHT22;1244;54.326;10.074;2023-09-08T04:03:07;16.30;99.90
2465;DHT22;1244;54.326;10.074;2023-09-08T04:05:33;16.30;99.90
2465;DHT22;1244;54.326;10.074;2023-09-08T04:07:58;16.20;99.90
2465;DHT22;1244;54.326;10.074;2023-09-08T04:10:24;16.10;99.90
2465;DHT22;1244;54.326;10.074;2023-09-08T04:12:49;16.00;99.90
2465;DHT22;1244;54.326;10.074;2023-09-08T04:15:15;15.90;99.90
2465;DHT22;1244;54.326;10.074;2023-09-08T04:17:40;15.90;99.90
2465;DHT22;1244;54.326;10.074;2023-09-08T04:20:07;15.80;99.90
2465;DHT22;1244;54.326;10.074;2023-09-08T04:22:36;15.90;99.90
2465;DHT22;1244;54.326;10.074;2023-09-08T04:25:02;16.10;99.90
2465;DHT22;1244;54.326;10.074;2023-09-08T04:27:27;16.20;99.90
2465;DHT22;1244;54.326;10.074;2023-09-08T04:29:53;16.30;99.90
2465;DHT22;1244;54.326;10.074;2023-09-08T04:32:21;16.10;99.90
2465;DHT22;1244;54.326;10.074;2023-09-08T04:34:46;15.90;99.90
2465;DHT22;1244;54.326;10.074;2023-09-08T04:37:12;15.70;99.90
2465;DHT22;1244;54.326;10.074;2023-09-08T04:39:37;15.70;99.90
2465;DHT22;1244;54.326;10.074;2023-09-08T04:42:03;15.60;99.90
2465;DHT22;1244;54.326;10.074;2023-09-08T04:44:29;15.70;99.90
2465;DHT22;1244;54.326;10.074;2023-09-08T04:46:55;15.70;99.90
2465;DHT22;1244;54.326;10.074;2023-09-08T04:49:20;15.60;99.90
2465;DHT22;1244;54.326;10.074;2023-09-08T04:51:46;15.50;99.90
2465;DHT22;1244;54.326;10.074;2023-09-08T04:54:12;15.50;99.90
2465;DHT22;1244;54.326;10.074;2023-09-08T04:56:38;15.50;99.90
2465;DHT22;1244;54.326;10.074;2023-09-08T04:59:04;15.50;99.90
2465;DHT22;1244;54.326;10.074;2023-09-08T05:01:29;15.50;99.90
2465;DHT22;1244;54.326;10.074;2023-09-08T05:03:58;15.50;99.90
2465;DHT22;1244;54.326;10.074;2023-09-08T05:06:24;15.40;99.90
2465;DHT22;1244;54.326;10.074;2023-09-08T05:08:50;15.50;99.90
2465;DHT22;1244;54.326;10.074;2023-09-08T05:11:16;15.40;99.90
2465;DHT22;1244;54.326;10.074;2023-09-08T05:13:42;15.40;99.90
2465;DHT22;1244;54.326;10.074;2023-09-08T05:16:08;15.40;99.90
2465;DHT22;1244;54.326;10.074;2023-09-08T05:18:39;15.50;99.90
2465;DHT22;1244;54.326;10.074;2023-09-08T05:21:06;15.40;99.90
2465;DHT22;1244;54.326;10.074;2023-09-08T05:23:32;15.50;99.90
2465;DHT22;1244;54.326;10.074;2023-09-08T05:25:57;15.60;99.90
2465;DHT22;1244;54.326;10.074;2023-09-08T05:28:23;15.60;99.90
2465;DHT22;1244;54.326;10.074;2023-09-08T05:30:51;15.80;99.90
2465;DHT22;1244;54.326;10.074;2023-09-08T05:33:17;15.80;99.90
2465;DHT22;1244;54.326;10.074;2023-09-08T05:35:42;15.90;99.90
2465;DHT22;1244;54.326;10.074;2023-09-08T05:38:08;16.00;99.90
2465;DHT22;1244;54.326;10.074;2023-09-08T05:40:34;16.30;99.90
2465;DHT22;1244;54.326;10.074;2023-09-08T05:43:00;16.30;99.90
2465;DHT22;1244;54.326;10.074;2023-09-08T05:45:26;16.50;99.90
2465;DHT22;1244;54.326;10.074;2023-09-08T05:47:52;16.40;99.90
2465;DHT22;1244;54.326;10.074;2023-09-08T05:50:17;16.40;99.90
2465;DHT22;1244;54.326;10.074;2023-09-08T05:52:43;16.40;99.90
2465;DHT22;1244;54.326;10.074;2023-09-08T05:55:09;16.40;99.90
2465;DHT22;1244;54.326;10.074;2023-09-08T05:57:34;16.70;99.90
2465;DHT22;1244;54.326;10.074;2023-09-08T06:00:01;16.70;99.90
2465;DHT22;1244;54.326;10.074;2023-09-08T06:02:27;16.80;99.90
2465;DHT22;1244;54.326;10.074;2023-09-08T06:04:52;16.90;99.90
2465;DHT22;1244;54.326;10.074;2023-09-08T06:07:18;17.00;99.90
2465;DHT22;1244;54.326;10.074;2023-09-08T06:09:43;17.10;99.90
2465;DHT22;1244;54.326;10.074;2023-09-08T06:12:09;17.30;99.90
2465;DHT22;1244;54.326;10.074;2023-09-08T06:14:34;17.30;99.90
2465;DHT22;1244;54.326;10.074;2023-09-08T06:17:01;17.40;99.90
2465;DHT22;1244;54.326;10.074;2023-09-08T06:19:26;17.60;99.90
2465;DHT22;1244;54.326;10.074;2023-09-08T06:21:52;17.70;99.90
2465;DHT22;1244;54.326;10.074;2023-09-08T06:24:17;18.10;99.90
2465;DHT22;1244;54.326;10.074;2023-09-08T06:26:43;18.40;99.90
2465;DHT22;1244;54.326;10.074;2023-09-08T06:29:09;18.70;99.90
2465;DHT22;1244;54.326;10.074;2023-09-08T06:31:34;18.90;99.90
2465;DHT22;1244;54.326;10.074;2023-09-08T06:34:00;18.90;99.90
2465;DHT22;1244;54.326;10.074;2023-09-08T06:36:25;19.00;99.90
2465;DHT22;1244;54.326;10.074;2023-09-08T06:38:51;18.90;99.90
2465;DHT22;1244;54.326;10.074;2023-09-08T06:41:16;19.10;99.90
2465;DHT22;1244;54.326;10.074;2023-09-08T06:43:43;19.20;99.90
2465;DHT22;1244;54.326;10.074;2023-09-08T06:46:09;19.30;99.90
2465;DHT22;1244;54.326;10.074;2023-09-08T06:48:35;19.40;99.90
2465;DHT22;1244;54.326;10.074;2023-09-08T06:51:00;19.40;99.90
2465;DHT22;1244;54.326;10.074;2023-09-08T06:53:26;19.50;99.90
2465;DHT22;1244;54.326;10.074;2023-09-08T06:55:51;19.60;99.90
2465;DHT22;1244;54.326;10.074;2023-09-08T06:58:17;19.70;99.90
2465;DHT22;1244;54.326;10.074;2023-09-08T07:00:43;19.80;99.90
2465;DHT22;1244;54.326;10.074;2023-09-08T07:03:08;19.80;99.90
2465;DHT22;1244;54.326;10.074;2023-09-08T07:05:34;19.90;99.90
2465;DHT22;1244;54.326;10.074;2023-09-08T07:08:01;20.00;99.90
2465;DHT22;1244;54.326;10.074;2023-09-08T07:10:27;20.10;99.90
2465;DHT22;1244;54.326;10.074;2023-09-08T07:12:52;20.20;99.90
2465;DHT22;1244;54.326;10.074;2023-09-08T07:15:18;20.30;99.90
2465;DHT22;1244;54.326;10.074;2023-09-08T07:17:43;20.40;99.90
2465;DHT22;1244;54.326;10.074;2023-09-08T07:20:09;20.50;99.90
2465;DHT22;1244;54.326;10.074;2023-09-08T07:22:35;20.50;99.90
2465;DHT22;1244;54.326;10.074;2023-09-08T07:25:00;20.60;99.90
2465;DHT22;1244;54.326;10.074;2023-09-08T07:27:26;20.70;99.90
2465;DHT22;1244;54.326;10.074;2023-09-08T07:29:51;20.90;99.90
2465;DHT22;1244;54.326;10.074;2023-09-08T07:32:18;20.90;99.90
2465;DHT22;1244;54.326;10.074;2023-09-08T07:34:43;21.00;99.90
2465;DHT22;1244;54.326;10.074;2023-09-08T07:37:09;21.20;99.90
2465;DHT22;1244;54.326;10.074;2023-09-08T07:39:35;21.20;99.90
2465;DHT22;1244;54.326;10.074;2023-09-08T07:42:01;21.40;99.90
2465;DHT22;1244;54.326;10.074;2023-09-08T07:44:27;21.40;99.90
2465;DHT22;1244;54.326;10.074;2023-09-08T07:46:52;21.50;99.90
2465;DHT22;1244;54.326;10.074;2023-09-08T07:49:20;21.70;99.90
2465;DHT22;1244;54.326;10.074;2023-09-08T07:51:46;21.80;99.90
2465;DHT22;1244;54.326;10.074;2023-09-08T07:54:12;22.00;99.90
2465;DHT22;1244;54.326;10.074;2023-09-08T07:56:38;22.10;99.90
2465;DHT22;1244;54.326;10.074;2023-09-08T07:59:07;22.10;99.90
2465;DHT22;1244;54.326;10.074;2023-09-08T08:01:32;22.30;99.90
2465;DHT22;1244;54.326;10.074;2023-09-08T08:03:58;22.40;99.90
2465;DHT22;1244;54.326;10.074;2023-09-08T08:06:24;22.40;99.90
2465;DHT22;1244;54.326;10.074;2023-09-08T08:08:49;22.50;99.90
2465;DHT22;1244;54.326;10.074;2023-09-08T08:11:16;22.70;99.90
2465;DHT22;1244;54.326;10.074;2023-09-08T08:13:45;22.90;99.90
2465;DHT22;1244;54.326;10.074;2023-09-08T08:16:11;23.00;99.90
2465;DHT22;1244;54.326;10.074;2023-09-08T08:18:37;23.20;99.90
2465;DHT22;1244;54.326;10.074;2023-09-08T08:21:02;23.30;99.90
2465;DHT22;1244;54.326;10.074;2023-09-08T08:23:29;23.40;99.90
2465;DHT22;1244;54.326;10.074;2023-09-08T08:25:56;23.40;99.90
2465;DHT22;1244;54.326;10.074;2023-09-08T08:28:21;23.50;99.90
2465;DHT22;1244;54.326;10.074;2023-09-08T08:30:47;23.60;99.90
2465;DHT22;1244;54.326;10.074;2023-09-08T08:33:13;23.90;99.90
2465;DHT22;1244;54.326;10.074;2023-09-08T08:35:39;23.90;99.90
2465;DHT22;1244;54.326;10.074;2023-09-08T08:38:05;24.00;99.90
2465;DHT22;1244;54.326;10.074;2023-09-08T08:40:30;24.20;99.90
2465;DHT22;1244;54.326;10.074;2023-09-08T08:42:57;24.30;99.90
2465;DHT22;1244;54.326;10.074;2023-09-08T08:45:24;24.30;99.90
2465;DHT22;1244;54.326;10.074;2023-09-08T08:47:53;24.20;99.90
2465;DHT22;1244;54.326;10.074;2023-09-08T08:50:20;24.60;99.90
2465;DHT22;1244;54.326;10.074;2023-09-08T08:52:46;24.60;99.90
2465;DHT22;1244;54.326;10.074;2023-09-08T08:55:12;24.60;99.90
2465;DHT22;1244;54.326;10.074;2023-09-08T08:57:41;24.90;99.90
2465;DHT22;1244;54.326;10.074;2023-09-08T09:00:08;25.30;99.90
2465;DHT22;1244;54.326;10.074;2023-09-08T09:02:42;25.60;99.90
2465;DHT22;1244;54.326;10.074;2023-09-08T09:05:12;25.90;99.90
2465;DHT22;1244;54.326;10.074;2023-09-08T09:07:39;26.00;99.90
2465;DHT22;1244;54.326;10.074;2023-09-08T09:10:06;25.90;99.90
2465;DHT22;1244;54.326;10.074;2023-09-08T09:12:32;25.80;99.90
2465;DHT22;1244;54.326;10.074;2023-09-08T09:14:59;26.10;99.90
2465;DHT22;1244;54.326;10.074;2023-09-08T09:17:26;26.20;99.90
2465;DHT22;1244;54.326;10.074;2023-09-08T09:20:18;26.10;99.90
2465;DHT22;1244;54.326;10.074;2023-09-08T09:22:49;26.30;99.90
2465;DHT22;1244;54.326;10.074;2023-09-08T09:25:25;26.40;99.90
2465;DHT22;1244;54.326;10.074;2023-09-08T09:28:02;26.70;99.90
2465;DHT22;1244;54.326;10.074;2023-09-08T09:30:40;26.90;99.90
2465;DHT22;1244;54.326;10.074;2023-09-08T09:33:10;26.30;99.90
2465;DHT22;1244;54.326;10.074;2023-09-08T09:35:40;26.40;99.90
2465;DHT22;1244;54.326;10.074;2023-09-08T09:38:06;26.40;99.90
2465;DHT22;1244;54.326;10.074;2023-09-08T09:40:33;26.40;99.90
2465;DHT22;1244;54.326;10.074;2023-09-08T09:42:59;26.40;99.90
2465;DHT22;1244;54.326;10.074;2023-09-08T09:45:27;26.70;99.90
2465;DHT22;1244;54.326;10.074;2023-09-08T09:47:54;27.10;99.90
2465;DHT22;1244;54.326;10.074;2023-09-08T09:50:41;27.30;99.90
2465;DHT22;1244;54.326;10.074;2023-09-08T09:53:14;27.70;99.90
2465;DHT22;1244;54.326;10.074;2023-09-08T09:55:42;27.60;99.90
2465;DHT22;1244;54.326;10.074;2023-09-08T09:58:09;27.80;99.90
2465;DHT22;1244;54.326;10.074;2023-09-08T10:00:36;28.10;99.90
2465;DHT22;1244;54.326;10.074;2023-09-08T10:03:04;28.10;99.90
2465;DHT22;1244;54.326;10.074;2023-09-08T10:05:29;28.40;99.90
2465;DHT22;1244;54.326;10.074;2023-09-08T10:07:55;28.60;99.90
2465;DHT22;1244;54.326;10.074;2023-09-08T10:10:22;28.40;99.90
2465;DHT22;1244;54.326;10.074;2023-09-08T10:12:53;28.50;99.90
2465;DHT22;1244;54.326;10.074;2023-09-08T10:15:21;28.50;99.90
2465;DHT22;1244;54.326;10.074;2023-09-08T10:17:54;29.20;99.90
2465;DHT22;1244;54.326;10.074;2023-09-08T10:20:26;28.80;99.90
2465;DHT22;1244;54.326;10.074;2023-09-08T10:22:55;28.80;99.90
2465;DHT22;1244;54.326;10.074;2023-09-08T10:25:24;29.00;99.90
2465;DHT22;1244;54.326;10.074;2023-09-08T10:27:50;29.30;99.90
2465;DHT22;1244;54.326;10.074;2023-09-08T10:30:16;29.40;99.90
2465;DHT22;1244;54.326;10.074;2023-09-08T10:32:43;29.60;99.90
2465;DHT22;1244;54.326;10.074;2023-09-08T10:35:09;30.00;99.90
2465;DHT22;1244;54.326;10.074;2023-09-08T10:37:35;30.50;99.90
2465;DHT22;1244;54.326;10.074;2023-09-08T10:40:20;30.50;99.90
2465;DHT22;1244;54.326;10.074;2023-09-08T10:42:46;30.40;99.90
2465;DHT22;1244;54.326;10.074;2023-09-08T10:45:18;30.00;99.90
2465;DHT22;1244;54.326;10.074;2023-09-08T10:50:17;30.40;99.90
2465;DHT22;1244;54.326;10.074;2023-09-08T10:52:43;30.80;99.90
2465;DHT22;1244;54.326;10.074;2023-09-08T10:55:11;31.30;99.90
2465;DHT22;1244;54.326;10.074;2023-09-08T10:57:36;31.50;99.90
2465;DHT22;1244;54.326;10.074;2023-09-08T11:00:04;32.00;99.90
2465;DHT22;1244;54.326;10.074;2023-09-08T11:02:47;32.60;99.90
2465;DHT22;1244;54.326;10.074;2023-09-08T11:05:14;32.30;99.90
2465;DHT22;1244;54.326;10.074;2023-09-08T11:07:42;32.20;99.90
2465;DHT22;1244;54.326;10.074;2023-09-08T11:10:09;32.00;99.90
2465;DHT22;1244;54.326;10.074;2023-09-08T11:12:35;32.10;99.90
2465;DHT22;1244;54.326;10.074;2023-09-08T11:15:03;32.20;99.90
2465;DHT22;1244;54.326;10.074;2023-09-08T11:17:31;31.90;99.90
2465;DHT22;1244;54.326;10.074;2023-09-08T11:19:57;32.10;99.90
2465;DHT22;1244;54.326;10.074;2023-09-08T11:22:24;32.00;99.90
2465;DHT22;1244;54.326;10.074;2023-09-08T11:24:50;32.60;99.90
2465;DHT22;1244;54.326;10.074;2023-09-08T11:27:17;32.50;99.90
2465;DHT22;1244;54.326;10.074;2023-09-08T11:29:44;32.00;99.90
2465;DHT22;1244;54.326;10.074;2023-09-08T11:32:10;32.10;99.90
2465;DHT22;1244;54.326;10.074;2023-09-08T11:34:36;32.40;99.90
2465;DHT22;1244;54.326;10.074;2023-09-08T11:37:12;32.70;99.90
2465;DHT22;1244;54.326;10.074;2023-09-08T11:39:42;32.60;99.90
2465;DHT22;1244;54.326;10.074;2023-09-08T11:42:17;33.20;99.90
2465;DHT22;1244;54.326;10.074;2023-09-08T11:44:43;32.50;99.90
2465;DHT22;1244;54.326;10.074;2023-09-08T11:47:10;32.90;99.90
2465;DHT22;1244;54.326;10.074;2023-09-08T11:49:40;33.10;99.90
2465;DHT22;1244;54.326;10.074;2023-09-08T11:52:06;33.30;99.90
2465;DHT22;1244;54.326;10.074;2023-09-08T11:54:33;33.00;99.90
2465;DHT22;1244;54.326;10.074;2023-09-08T11:57:01;33.00;99.90
2465;DHT22;1244;54.326;10.074;2023-09-08T11:59:32;33.40;99.90
2465;DHT22;1244;54.326;10.074;2023-09-08T12:01:58;33.90;99.90
2465;DHT22;1244;54.326;10.074;2023-09-08T12:04:23;34.10;99.90
2465;DHT22;1244;54.326;10.074;2023-09-08T12:06:53;34.20;99.90
2465;DHT22;1244;54.326;10.074;2023-09-08T12:09:20;34.30;99.90
2465;DHT22;1244;54.326;10.074;2023-09-08T12:11:47;33.60;99.90
2465;DHT22;1244;54.326;10.074;2023-09-08T12:14:14;34.10;99.90
2465;DHT22;1244;54.326;10.074;2023-09-08T12:16:41;34.10;99.90
2465;DHT22;1244;54.326;10.074;2023-09-08T12:19:07;33.50;99.90
2465;DHT22;1244;54.326;10.074;2023-09-08T12:21:54;32.50;99.90
2465;DHT22;1244;54.326;10.074;2023-09-08T12:24:20;33.50;99.90
2465;DHT22;1244;54.326;10.074;2023-09-08T12:26:49;33.50;99.90
2465;DHT22;1244;54.326;10.074;2023-09-08T12:29:15;33.60;99.90
2465;DHT22;1244;54.326;10.074;2023-09-08T12:31:40;33.60;99.90
2465;DHT22;1244;54.326;10.074;2023-09-08T12:34:06;33.70;99.90
2465;DHT22;1244;54.326;10.074;2023-09-08T12:36:35;33.50;99.90
2465;DHT22;1244;54.326;10.074;2023-09-08T12:39:03;33.40;99.90
2465;DHT22;1244;54.326;10.074;2023-09-08T12:41:30;33.50;99.90
2465;DHT22;1244;54.326;10.074;2023-09-08T12:43:55;33.10;99.90
2465;DHT22;1244;54.326;10.074;2023-09-08T12:46:21;33.80;99.20
2465;DHT22;1244;54.326;10.074;2023-09-08T12:48:46;34.20;98.00
2465;DHT22;1244;54.326;10.074;2023-09-08T12:51:12;34.00;98.40
2465;DHT22;1244;54.326;10.074;2023-09-08T12:53:37;33.80;98.10
2465;DHT22;1244;54.326;10.074;2023-09-08T12:56:03;33.60;98.70
2465;DHT22;1244;54.326;10.074;2023-09-08T12:58:28;33.80;98.00
2465;DHT22;1244;54.326;10.074;2023-09-08T13:00:54;33.70;96.80
2465;DHT22;1244;54.326;10.074;2023-09-08T13:03:20;33.60;98.00
2465;DHT22;1244;54.326;10.074;2023-09-08T13:05:45;33.80;97.10
2465;DHT22;1244;54.326;10.074;2023-09-08T13:08:11;33.50;97.30
2465;DHT22;1244;54.326;10.074;2023-09-08T13:10:36;33.30;97.30
2465;DHT22;1244;54.326;10.074;2023-09-08T13:13:02;33.20;97.70
2465;DHT22;1244;54.326;10.074;2023-09-08T13:15:29;32.60;98.70
2465;DHT22;1244;54.326;10.074;2023-09-08T13:17:55;32.30;98.20
2465;DHT22;1244;54.326;10.074;2023-09-08T13:20:21;32.20;98.80
2465;DHT22;1244;54.326;10.074;2023-09-08T13:22:46;32.10;99.90
2465;DHT22;1244;54.326;10.074;2023-09-08T13:25:12;31.80;99.90
2465;DHT22;1244;54.326;10.074;2023-09-08T13:27:40;31.10;99.90
2465;DHT22;1244;54.326;10.074;2023-09-08T13:30:09;31.20;99.80
2465;DHT22;1244;54.326;10.074;2023-09-08T13:32:35;30.90;99.90
2465;DHT22;1244;54.326;10.074;2023-09-08T13:35:01;30.80;99.90
2465;DHT22;1244;54.326;10.074;2023-09-08T13:37:28;30.70;99.90
2465;DHT22;1244;54.326;10.074;2023-09-08T13:39:53;31.10;99.90
2465;DHT22;1244;54.326;10.074;2023-09-08T13:42:19;31.10;99.90
2465;DHT22;1244;54.326;10.074;2023-09-08T13:44:44;30.80;99.90
2465;DHT22;1244;54.326;10.074;2023-09-08T13:47:10;30.70;99.90
2465;DHT22;1244;54.326;10.074;2023-09-08T13:49:36;30.80;99.90
2465;DHT22;1244;54.326;10.074;2023-09-08T13:52:01;30.70;99.90
2465;DHT22;1244;54.326;10.074;2023-09-08T13:54:27;31.00;99.90
2465;DHT22;1244;54.326;10.074;2023-09-08T13:57:00;31.20;99.90
2465;DHT22;1244;54.326;10.074;2023-09-08T13:59:27;31.10;99.90
2465;DHT22;1244;54.326;10.074;2023-09-08T14:01:54;30.90;99.90
2465;DHT22;1244;54.326;10.074;2023-09-08T14:04:19;30.80;99.90
2465;DHT22;1244;54.326;10.074;2023-09-08T14:06:45;30.40;99.90
2465;DHT22;1244;54.326;10.074;2023-09-08T14:09:10;30.30;99.90
2465;DHT22;1244;54.326;10.074;2023-09-08T14:11:36;30.20;99.90
2465;DHT22;1244;54.326;10.074;2023-09-08T14:14:02;30.30;99.90
2465;DHT22;1244;54.326;10.074;2023-09-08T14:16:28;30.40;99.90
2465;DHT22;1244;54.326;10.074;2023-09-08T14:18:54;30.50;99.90
2465;DHT22;1244;54.326;10.074;2023-09-08T14:21:20;30.50;99.90
2465;DHT22;1244;54.326;10.074;2023-09-08T14:23:46;30.10;99.90
2465;DHT22;1244;54.326;10.074;2023-09-08T14:26:11;30.00;99.90
2465;DHT22;1244;54.326;10.074;2023-09-08T14:28:37;30.10;99.90
2465;DHT22;1244;54.326;10.074;2023-09-08T14:31:03;30.10;99.90
2465;DHT22;1244;54.326;10.074;2023-09-08T14:33:29;29.90;99.90
2465;DHT22;1244;54.326;10.074;2023-09-08T14:35:54;30.00;99.90
2465;DHT22;1244;54.326;10.074;2023-09-08T14:38:21;29.90;99.90
2465;DHT22;1244;54.326;10.074;2023-09-08T14:41:00;29.80;99.90
2465;DHT22;1244;54.326;10.074;2023-09-08T14:43:27;29.50;99.90
2465;DHT22;1244;54.326;10.074;2023-09-08T14:45:53;29.80;99.90
2465;DHT22;1244;54.326;10.074;2023-09-08T14:48:20;29.90;99.90
2465;DHT22;1244;54.326;10.074;2023-09-08T14:50:46;29.70;99.90
2465;DHT22;1244;54.326;10.074;2023-09-08T14:53:12;29.70;99.90
2465;DHT22;1244;54.326;10.074;2023-09-08T14:55:39;29.80;99.90
2465;DHT22;1244;54.326;10.074;2023-09-08T14:58:05;29.70;99.90
2465;DHT22;1244;54.326;10.074;2023-09-08T15:00:31;29.50;99.90
2465;DHT22;1244;54.326;10.074;2023-09-08T15:02:57;29.50;99.90
2465;DHT22;1244;54.326;10.074;2023-09-08T15:05:23;29.40;99.90
2465;DHT22;1244;54.326;10.074;2023-09-08T15:07:50;29.20;99.90
2465;DHT22;1244;54.326;10.074;2023-09-08T15:10:16;29.30;99.90
2465;DHT22;1244;54.326;10.074;2023-09-08T15:12:43;29.20;99.90
2465;DHT22;1244;54.326;10.074;2023-09-08T15:15:10;29.30;99.90
2465;DHT22;1244;54.326;10.074;2023-09-08T15:17:37;29.20;99.90
2465;DHT22;1244;54.326;10.074;2023-09-08T15:20:03;29.20;99.90
2465;DHT22;1244;54.326;10.074;2023-09-08T15:22:30;29.00;99.90
2465;DHT22;1244;54.326;10.074;2023-09-08T15:24:56;28.90;99.90
2465;DHT22;1244;54.326;10.074;2023-09-08T15:27:22;28.90;99.90
2465;DHT22;1244;54.326;10.074;2023-09-08T15:29:49;29.00;99.90
2465;DHT22;1244;54.326;10.074;2023-09-08T15:32:16;28.90;99.90
2465;DHT22;1244;54.326;10.074;2023-09-08T15:34:42;28.80;99.90
2465;DHT22;1244;54.326;10.074;2023-09-08T15:37:12;28.80;99.90
2465;DHT22;1244;54.326;10.074;2023-09-08T15:39:38;28.70;99.90
2465;DHT22;1244;54.326;10.074;2023-09-08T15:42:04;28.50;99.90
2465;DHT22;1244;54.326;10.074;2023-09-08T15:44:30;28.60;99.90